Time;durP1;ratioP1;P1;durP2;ratioP2;P2;SDS_P1;SDS_P2;PMS_P1;PMS_P2;Temp;Humidity;BMP_temperature;BMP_pressure;BME280_temperature;BME280_humidity;BME280_pressure;Samples;Min_cycle;Max_cycle;Signal;HPM_P1;HPM_P2
2021/12/02 00:01:12;;;;;;;13.23;9.27;;;8.60;99.90;;;;;;5017324;28;20647;-71
2021/12/02 00:03:41;;;;;;;11.40;8.43;;;8.60;99.90;;;;;;5017400;28;20202;-71
2021/12/02 00:06:09;;;;;;;14.13;9.32;;;8.60;99.90;;;;;;5017198;28;20232;-71
2021/12/02 00:08:42;;;;;;;10.65;7.85;;;8.60;99.90;;;;;;5002275;28;20271;-72
2021/12/02 00:11:10;;;;;;;10.25;8.02;;;8.50;99.90;;;;;;4994277;28;20183;-71
2021/12/02 00:13:55;;;;;;;10.85;7.45;;;8.50;99.90;;;;;;4993250;28;20274;-71
2021/12/02 00:21:54;;;;;;;12.18;6.75;;;8.50;99.90;;;;;;4995716;28;20167;-71
2021/12/02 00:24:28;;;;;;;12.95;7.82;;;8.50;99.90;;;;;;4994125;28;20209;-71
2021/12/02 00:27:00;;;;;;;11.90;8.25;;;8.40;99.90;;;;;;5010684;28;20192;-71
2021/12/02 00:29:35;;;;;;;10.20;7.45;;;8.40;99.90;;;;;;4994311;28;20230;-71
2021/12/02 00:32:10;;;;;;;7.18;6.13;;;8.50;99.90;;;;;;4993496;28;20298;-71
2021/12/02 00:34:57;;;;;;;9.77;7.30;;;8.50;99.90;;;;;;5010463;28;20178;-71
2021/12/02 00:37:26;;;;;;;9.05;5.82;;;8.50;99.90;;;;;;4993787;28;20606;-71
2021/12/02 00:39:54;;;;;;;11.07;5.28;;;8.50;99.90;;;;;;4993799;28;20672;-71
2021/12/02 00:42:35;;;;;;;9.02;5.85;;;8.50;99.90;;;;;;4993682;28;20180;-72
2021/12/02 00:45:04;;;;;;;6.25;5.25;;;8.50;99.90;;;;;;5010190;28;20179;-71
2021/12/02 00:47:33;;;;;;;7.78;5.50;;;8.50;99.90;;;;;;4993322;28;20212;-71
2021/12/02 00:49:59;;;;;;;8.43;5.28;;;8.50;99.90;;;;;;4993995;28;20275;-71
2021/12/02 00:52:31;;;;;;;6.57;5.63;;;8.50;99.90;;;;;;4993301;28;20215;-71
2021/12/02 00:55:07;;;;;;;6.22;4.57;;;8.50;99.90;;;;;;4993525;28;20179;-71
2021/12/02 00:57:42;;;;;;;6.25;5.25;;;8.50;99.90;;;;;;4993241;28;20210;-71
2021/12/02 01:00:11;;;;;;;8.73;5.85;;;8.50;99.90;;;;;;4993589;28;20183;-71
2021/12/02 01:02:43;;;;;;;10.65;5.00;;;8.50;99.90;;;;;;4993127;28;20258;-72
2021/12/02 01:05:13;;;;;;;6.40;5.75;;;8.50;99.90;;;;;;4993430;28;20188;-72
2021/12/02 01:07:42;;;;;;;9.25;5.97;;;8.40;99.90;;;;;;4993197;28;20341;-70
2021/12/02 01:10:09;;;;;;;6.68;5.53;;;8.40;99.90;;;;;;4993395;28;20179;-71
2021/12/02 01:12:50;;;;;;;6.68;4.72;;;8.40;99.90;;;;;;4993004;28;20715;-71
2021/12/02 01:15:20;;;;;;;8.48;5.72;;;8.40;99.90;;;;;;5009806;28;20222;-71
2021/12/02 01:17:48;;;;;;;8.43;6.28;;;8.40;99.90;;;;;;4993384;28;20661;-71
2021/12/02 01:20:15;;;;;;;8.90;6.35;;;8.40;99.90;;;;;;4993299;28;20554;-71
2021/12/02 01:22:43;;;;;;;8.07;6.55;;;8.30;99.90;;;;;;4993234;28;20589;-71
2021/12/02 01:25:18;;;;;;;8.65;7.05;;;8.30;99.90;;;;;;4992982;28;20234;-71
2021/12/02 01:27:48;;;;;;;8.75;7.47;;;8.30;99.90;;;;;;4993118;28;20229;-71
2021/12/02 01:30:24;;;;;;;7.30;6.18;;;8.30;99.90;;;;;;4993567;28;20172;-71
2021/12/02 01:32:56;;;;;;;10.70;7.75;;;8.30;99.90;;;;;;4993090;28;20227;-71
2021/12/02 01:35:24;;;;;;;9.98;7.07;;;8.30;99.90;;;;;;4993055;28;20219;-71
2021/12/02 01:37:52;;;;;;;15.85;14.32;;;8.20;99.90;;;;;;4992988;28;20661;-71
2021/12/02 01:40:22;;;;;;;10.82;8.68;;;8.20;99.90;;;;;;4993036;28;20286;-71
2021/12/02 01:43:01;;;;;;;7.07;6.20;;;8.20;99.90;;;;;;5009196;28;20219;-71
2021/12/02 01:45:39;;;;;;;10.02;6.47;;;8.20;99.90;;;;;;4993292;28;20550;-72
2021/12/02 01:48:10;;;;;;;6.13;5.55;;;8.20;99.90;;;;;;4992989;28;20653;-72
2021/12/02 01:50:40;;;;;;;8.27;5.18;;;8.20;99.90;;;;;;4992888;28;20266;-71
2021/12/02 01:53:07;;;;;;;10.48;7.90;;;8.20;99.90;;;;;;4992835;28;20263;-72
2021/12/02 01:55:41;;;;;;;9.65;8.43;;;8.20;99.90;;;;;;4993017;28;20279;-72
2021/12/02 01:58:17;;;;;;;9.45;7.40;;;8.20;99.90;;;;;;4993124;28;20240;-72
2021/12/02 02:01:03;;;;;;;6.07;5.03;;;8.20;99.90;;;;;;4992915;28;20184;-72
2021/12/02 02:03:40;;;;;;;6.40;5.85;;;8.20;99.90;;;;;;5009357;28;20219;-71
2021/12/02 02:06:11;;;;;;;7.60;6.05;;;8.20;99.90;;;;;;5009180;28;20183;-71
2021/12/02 02:08:45;;;;;;;8.45;5.75;;;8.20;99.90;;;;;;4992350;28;20243;-71
2021/12/02 02:11:17;;;;;;;8.23;7.13;;;8.20;99.90;;;;;;4994190;28;20176;-72
2021/12/02 02:13:46;;;;;;;8.00;6.13;;;8.20;99.90;;;;;;4992852;28;20318;-71
2021/12/02 02:16:12;;;;;;;8.60;6.18;;;8.20;99.90;;;;;;4992741;28;20176;-71
2021/12/02 02:18:41;;;;;;;7.75;6.90;;;8.20;99.90;;;;;;4994029;28;20207;-72
2021/12/02 02:21:19;;;;;;;5.72;3.90;;;8.20;99.90;;;;;;4992803;28;20591;-72
2021/12/02 02:24:15;;;;;;;8.35;5.57;;;8.20;99.90;;;;;;4992995;28;20610;-71
2021/12/02 02:26:54;;;;;;;6.47;5.70;;;8.20;99.90;;;;;;4993988;28;20168;-72
2021/12/02 02:29:33;;;;;;;8.43;6.70;;;8.10;99.90;;;;;;5008870;28;20199;-72
2021/12/02 02:32:00;;;;;;;8.45;5.70;;;8.10;99.90;;;;;;4992414;28;20191;-71
2021/12/02 02:34:27;;;;;;;10.63;6.40;;;8.10;99.90;;;;;;4992743;28;20680;-71
2021/12/02 02:37:00;;;;;;;11.35;6.70;;;8.20;99.90;;;;;;4994353;28;20192;-71
2021/12/02 02:39:40;;;;;;;9.27;6.68;;;8.10;99.90;;;;;;4996193;28;20211;-71
2021/12/02 02:42:09;;;;;;;7.78;6.93;;;8.10;99.90;;;;;;4995891;28;20196;-71
2021/12/02 02:44:38;;;;;;;11.70;7.93;;;8.10;99.90;;;;;;4997044;28;20168;-71
2021/12/02 02:47:08;;;;;;;9.10;7.70;;;8.10;99.90;;;;;;4995583;28;20199;-72
2021/12/02 02:49:35;;;;;;;8.98;8.07;;;8.10;99.90;;;;;;4995670;28;20529;-71
2021/12/02 02:52:04;;;;;;;10.18;8.55;;;8.10;99.90;;;;;;4995712;28;20206;-72
2021/12/02 02:54:32;;;;;;;9.70;6.88;;;8.10;99.90;;;;;;4995857;28;20180;-72
2021/12/02 02:57:17;;;;;;;9.27;7.95;;;8.10;99.90;;;;;;4996059;28;20206;-71
2021/12/02 03:02:38;;;;;;;8.80;7.00;;;8.00;99.90;;;;;;4997130;28;20715;-71
2021/12/02 03:05:27;;;;;;;10.13;7.18;;;8.00;99.90;;;;;;4995683;28;20534;-71
2021/12/02 03:07:58;;;;;;;7.75;6.53;;;8.00;99.90;;;;;;4995078;28;20331;-72
2021/12/02 03:10:44;;;;;;;7.47;6.72;;;8.00;99.90;;;;;;4995711;28;20183;-72
2021/12/02 03:13:16;;;;;;;6.57;5.93;;;7.90;99.90;;;;;;5011659;28;20237;-71
2021/12/02 03:18:29;;;;;;;10.35;7.45;;;8.00;99.90;;;;;;4997292;28;20672;-72
2021/12/02 03:21:03;;;;;;;9.35;6.35;;;7.90;99.90;;;;;;4995408;28;20180;-72
2021/12/02 03:23:31;;;;;;;7.65;6.50;;;7.90;99.90;;;;;;5011704;28;20581;-71
2021/12/02 03:28:57;;;;;;;6.40;5.80;;;8.00;99.90;;;;;;4995562;28;20224;-71
2021/12/02 03:31:24;;;;;;;6.88;5.50;;;8.00;99.90;;;;;;4995003;28;20182;-71
2021/12/02 03:33:50;;;;;;;6.65;5.97;;;8.00;99.90;;;;;;4995210;28;20337;-71
2021/12/02 03:36:17;;;;;;;8.45;5.47;;;8.00;99.90;;;;;;4994969;28;20226;-72
2021/12/02 03:38:52;;;;;;;7.07;5.10;;;8.00;99.90;;;;;;5011270;28;20211;-71
2021/12/02 03:41:21;;;;;;;8.45;5.68;;;8.00;99.90;;;;;;5011277;28;20617;-71
2021/12/02 03:43:49;;;;;;;6.18;5.38;;;8.00;99.90;;;;;;4994971;28;20235;-71
2021/12/02 03:46:19;;;;;;;7.93;4.93;;;8.10;99.90;;;;;;4994778;28;20202;-71
2021/12/02 03:48:50;;;;;;;5.13;4.60;;;8.10;99.90;;;;;;4994472;28;20204;-72
2021/12/02 03:51:19;;;;;;;9.75;5.05;;;8.10;99.90;;;;;;4994664;28;20184;-71
2021/12/02 03:53:50;;;;;;;9.23;5.57;;;8.10;99.90;;;;;;4994644;28;20255;-71
2021/12/02 03:56:27;;;;;;;4.95;4.45;;;8.10;99.90;;;;;;5011167;28;20270;-71
2021/12/02 03:58:57;;;;;;;5.97;4.35;;;8.10;99.90;;;;;;4994764;28;20254;-72
2021/12/02 04:01:26;;;;;;;6.97;4.85;;;8.10;99.90;;;;;;4994691;28;20179;-71
2021/12/02 04:04:13;;;;;;;4.40;4.00;;;8.20;99.90;;;;;;4994214;28;20646;-72
2021/12/02 04:06:51;;;;;;;5.38;4.18;;;8.10;99.90;;;;;;5010801;28;20568;-72
2021/12/02 04:09:34;;;;;;;4.35;3.85;;;8.20;99.90;;;;;;4994443;28;20235;-71
2021/12/02 04:12:23;;;;;;;7.65;4.15;;;8.20;99.90;;;;;;4994467;28;20242;-71
2021/12/02 04:15:03;;;;;;;15.10;4.70;;;8.10;99.90;;;;;;4994275;28;20187;-71
2021/12/02 04:17:43;;;;;;;4.80;4.30;;;8.10;99.90;;;;;;4994136;28;20216;-71
2021/12/02 04:20:19;;;;;;;4.28;3.75;;;8.10;99.90;;;;;;5010532;28;20231;-73
2021/12/02 04:22:50;;;;;;;4.10;3.22;;;8.10;99.90;;;;;;4994103;28;20298;-71
2021/12/02 04:25:18;;;;;;;4.20;3.65;;;8.10;99.90;;;;;;4994337;28;20704;-71
2021/12/02 04:27:49;;;;;;;5.47;3.72;;;8.10;99.90;;;;;;4993758;28;20266;-71
2021/12/02 04:30:20;;;;;;;8.77;4.00;;;8.20;99.90;;;;;;5010464;28;20663;-72
2021/12/02 04:32:47;;;;;;;3.97;2.70;;;8.20;99.90;;;;;;4992848;28;20240;-72
2021/12/02 04:35:17;;;;;;;5.00;3.90;;;8.20;99.90;;;;;;4993872;28;20182;-72
2021/12/02 04:37:45;;;;;;;5.30;4.38;;;8.20;99.90;;;;;;4993658;28;20239;-72
2021/12/02 04:40:32;;;;;;;4.70;3.40;;;8.30;99.90;;;;;;4993659;28;20180;-72
2021/12/02 04:43:03;;;;;;;5.03;4.00;;;8.30;99.90;;;;;;5009936;28;20270;-71
2021/12/02 04:45:30;;;;;;;5.93;4.50;;;8.30;99.90;;;;;;4993703;28;20176;-71
2021/12/02 04:47:58;;;;;;;5.65;4.43;;;8.30;99.90;;;;;;4993465;28;20215;-72
2021/12/02 04:50:25;;;;;;;4.83;3.90;;;8.30;99.90;;;;;;4993514;28;20266;-71
2021/12/02 04:52:57;;;;;;;6.28;4.55;;;8.40;99.90;;;;;;4993359;28;20460;-71
2021/12/02 04:55:36;;;;;;;3.80;3.10;;;8.40;99.90;;;;;;4993474;28;20277;-72
2021/12/02 04:58:13;;;;;;;4.20;3.67;;;8.40;99.90;;;;;;4993510;28;20258;-72
2021/12/02 05:00:41;;;;;;;5.78;4.47;;;8.40;99.90;;;;;;4993274;28;20553;-71
2021/12/02 05:03:10;;;;;;;6.15;4.07;;;8.40;99.90;;;;;;4993403;28;20215;-71
2021/12/02 05:05:39;;;;;;;4.80;4.30;;;8.40;99.90;;;;;;5009106;28;20271;-71
2021/12/02 05:08:13;;;;;;;6.10;4.30;;;8.40;99.90;;;;;;4992093;28;20250;-71
2021/12/02 05:10:40;;;;;;;6.45;4.10;;;8.40;99.90;;;;;;4992950;28;20172;-71
2021/12/02 05:13:08;;;;;;;5.72;3.55;;;8.40;99.90;;;;;;4992920;28;20238;-72
2021/12/02 05:15:34;;;;;;;3.92;3.30;;;8.40;99.90;;;;;;4993060;28;20176;-72
2021/12/02 05:18:01;;;;;;;6.25;5.45;;;8.40;99.90;;;;;;4993023;28;20204;-72
2021/12/02 05:20:40;;;;;;;6.90;4.30;;;8.50;99.90;;;;;;4993203;28;20176;-72
2021/12/02 05:23:14;;;;;;;4.25;3.85;;;8.50;99.90;;;;;;4993344;28;20211;-71
2021/12/02 05:25:45;;;;;;;9.23;4.38;;;8.50;99.90;;;;;;4993155;28;20278;-71
2021/12/02 05:28:18;;;;;;;4.90;4.20;;;8.50;99.90;;;;;;4992729;28;20212;-72
2021/12/02 05:30:46;;;;;;;5.70;3.97;;;8.50;99.90;;;;;;4991970;28;20276;-71
2021/12/02 05:33:20;;;;;;;4.85;4.35;;;8.50;99.90;;;;;;4992714;28;20764;-71
2021/12/02 05:35:48;;;;;;;4.15;3.75;;;8.50;99.90;;;;;;4992252;28;20191;-71
2021/12/02 05:38:34;;;;;;;8.10;5.03;;;8.50;99.90;;;;;;4992859;28;20270;-72
2021/12/02 05:41:05;;;;;;;4.97;4.35;;;8.50;99.90;;;;;;4994568;28;20695;-71
2021/12/02 05:43:35;;;;;;;4.95;3.70;;;8.40;99.90;;;;;;4992939;28;20219;-72
2021/12/02 05:46:05;;;;;;;4.55;3.97;;;8.40;99.90;;;;;;4996005;28;20179;-71
2021/12/02 05:48:43;;;;;;;6.40;4.60;;;8.40;99.90;;;;;;4992407;28;20219;-71
2021/12/02 05:51:20;;;;;;;6.97;5.38;;;8.40;99.90;;;;;;4991642;28;20732;-72
2021/12/02 05:53:47;;;;;;;10.05;5.38;;;8.40;99.90;;;;;;4991719;28;20238;-72
2021/12/02 05:56:15;;;;;;;8.85;5.78;;;8.40;99.90;;;;;;4986460;28;20632;-71
2021/12/02 05:58:42;;;;;;;16.67;10.38;;;8.40;99.90;;;;;;4986598;28;20746;-71
2021/12/02 06:01:08;;;;;;;53.88;36.63;;;8.40;99.90;;;;;;4988350;28;20235;-72
2021/12/02 06:03:37;;;;;;;15.73;11.10;;;8.40;99.90;;;;;;4991824;28;20207;-72
2021/12/02 06:06:07;;;;;;;5.93;5.32;;;8.50;99.90;;;;;;4989228;28;20210;-71
2021/12/02 06:08:33;;;;;;;7.60;5.75;;;8.50;99.90;;;;;;4999621;28;20783;-72
2021/12/02 06:11:05;;;;;;;10.07;6.55;;;8.50;99.90;;;;;;5009052;28;20266;-72
2021/12/02 06:13:46;;;;;;;8.07;6.05;;;8.50;99.90;;;;;;5011807;28;20223;-71
2021/12/02 06:16:16;;;;;;;10.20;6.60;;;8.50;99.90;;;;;;5009278;28;20183;-71
2021/12/02 06:18:46;;;;;;;7.50;6.10;;;8.40;99.90;;;;;;5028651;28;20210;-71
2021/12/02 06:21:12;;;;;;;7.30;5.80;;;8.40;99.90;;;;;;5013951;28;20237;-72
2021/12/02 06:23:41;;;;;;;5.53;4.82;;;8.40;99.90;;;;;;5012002;28;20742;-72
2021/12/02 06:26:40;;;;;;;7.70;5.78;;;8.40;99.90;;;;;;5013464;28;20530;-72
2021/12/02 06:29:09;;;;;;;7.65;5.82;;;8.40;99.90;;;;;;5010229;28;20586;-71
2021/12/02 06:31:41;;;;;;;6.70;6.05;;;8.40;99.90;;;;;;5014751;28;20710;-72
2021/12/02 06:34:15;;;;;;;6.30;5.57;;;8.40;99.90;;;;;;5023224;28;20229;-71
2021/12/02 06:36:41;;;;;;;8.15;6.82;;;8.40;99.90;;;;;;5008654;28;20180;-72
2021/12/02 06:39:08;;;;;;;7.80;6.20;;;8.40;99.90;;;;;;5013669;28;20203;-72
2021/12/02 06:41:41;;;;;;;9.48;6.65;;;8.40;99.90;;;;;;5012995;28;20201;-71
2021/12/02 06:44:13;;;;;;;6.03;5.45;;;8.30;99.90;;;;;;5013875;28;20241;-72
2021/12/02 06:46:47;;;;;;;7.95;6.25;;;8.30;99.90;;;;;;5012636;28;20179;-72
2021/12/02 06:49:27;;;;;;;8.77;6.18;;;8.30;99.90;;;;;;5011312;28;20585;-72
2021/12/02 06:51:56;;;;;;;8.15;5.47;;;8.30;99.90;;;;;;5012715;28;20518;-72
2021/12/02 06:54:26;;;;;;;7.75;5.60;;;8.30;99.90;;;;;;5008928;28;20612;-71
2021/12/02 06:56:53;;;;;;;8.35;6.57;;;8.30;99.90;;;;;;5011579;28;20705;-71
2021/12/02 06:59:28;;;;;;;7.60;5.43;;;8.20;99.90;;;;;;5010791;28;20203;-72
2021/12/02 07:01:56;;;;;;;23.05;14.70;;;8.20;99.90;;;;;;5012144;28;20651;-72
2021/12/02 07:04:27;;;;;;;14.82;10.18;;;8.30;99.90;;;;;;5008758;28;20211;-72
2021/12/02 07:06:57;;;;;;;12.35;8.77;;;8.30;99.90;;;;;;5025484;28;20199;-71
2021/12/02 07:09:28;;;;;;;10.88;7.70;;;8.30;99.90;;;;;;4991894;28;20227;-71
2021/12/02 07:11:59;;;;;;;7.75;5.93;;;8.30;99.90;;;;;;4991684;28;20195;-71
2021/12/02 07:14:36;;;;;;;7.40;5.65;;;8.30;99.90;;;;;;4986139;28;20234;-71
2021/12/02 07:17:05;;;;;;;8.95;5.68;;;8.30;99.90;;;;;;4992853;28;20183;-72
2021/12/02 07:19:39;;;;;;;8.70;5.65;;;8.30;99.90;;;;;;4994083;28;20184;-72
2021/12/02 07:22:11;;;;;;;6.43;5.53;;;8.30;99.90;;;;;;4982943;28;20207;-72
2021/12/02 07:24:39;;;;;;;4.82;4.07;;;8.30;99.90;;;;;;4994715;28;20180;-72
2021/12/02 07:27:06;;;;;;;5.45;4.50;;;8.30;99.90;;;;;;4994372;28;20249;-72
2021/12/02 07:29:39;;;;;;;6.82;5.28;;;8.30;99.90;;;;;;4990648;28;20179;-72
2021/12/02 07:32:06;;;;;;;9.85;6.60;;;8.30;99.90;;;;;;4996351;28;20207;-72
2021/12/02 07:34:44;;;;;;;7.15;5.35;;;8.30;99.90;;;;;;4973635;28;20239;-71
2021/12/02 07:37:28;;;;;;;7.93;5.97;;;8.30;99.90;;;;;;4985382;28;20547;-72
2021/12/02 07:39:55;;;;;;;9.75;6.40;;;8.30;99.90;;;;;;5010243;28;20538;-72
2021/12/02 07:42:24;;;;;;;9.07;7.13;;;8.30;99.90;;;;;;4991002;28;20182;-73
2021/12/02 07:44:57;;;;;;;8.70;7.15;;;8.40;99.90;;;;;;4985956;28;20242;-72
2021/12/02 07:47:29;;;;;;;20.30;18.17;;;8.40;99.90;;;;;;4974678;28;20208;-73
2021/12/02 07:49:58;;;;;;;10.40;9.40;;;8.50;99.90;;;;;;4986300;28;20191;-72
2021/12/02 07:52:26;;;;;;;16.45;9.25;;;8.50;99.90;;;;;;4988497;28;20215;-72
2021/12/02 07:55:11;;;;;;;8.68;6.68;;;8.60;99.90;;;;;;4978550;28;20732;-72
2021/12/02 07:57:45;;;;;;;10.40;7.53;;;8.60;99.90;;;;;;4989824;28;20254;-72
2021/12/02 08:00:17;;;;;;;10.40;8.65;;;8.60;99.90;;;;;;4991241;28;20188;-72
2021/12/02 08:02:49;;;;;;;7.88;6.68;;;8.70;99.90;;;;;;4988001;28;20212;-72
2021/12/02 08:05:22;;;;;;;8.50;6.10;;;8.70;99.90;;;;;;4981974;28;20191;-72
2021/12/02 08:07:52;;;;;;;10.55;8.00;;;8.70;99.90;;;;;;4979998;28;20747;-72
2021/12/02 08:10:25;;;;;;;20.33;14.30;;;8.80;99.90;;;;;;4986218;28;20245;-72
2021/12/02 08:13:02;;;;;;;19.95;16.38;;;8.80;99.90;;;;;;4993579;28;20223;-72
2021/12/02 08:15:30;;;;;;;18.65;14.68;;;8.80;99.90;;;;;;4988171;28;20552;-72
2021/12/02 08:17:57;;;;;;;20.48;13.90;;;8.80;99.90;;;;;;4992348;28;20215;-72
2021/12/02 08:23:24;;;;;;;10.55;7.05;;;8.90;99.90;;;;;;4980367;28;20222;-71
2021/12/02 08:25:57;;;;;;;7.07;6.20;;;8.90;99.90;;;;;;4986653;28;20187;-71
2021/12/02 08:28:28;;;;;;;8.88;6.25;;;9.00;99.90;;;;;;4976908;28;20257;-72
2021/12/02 08:31:07;;;;;;;7.00;5.85;;;9.00;99.90;;;;;;4989866;28;20182;-72
2021/12/02 08:33:59;;;;;;;11.13;6.03;;;9.00;99.90;;;;;;4981868;28;20215;-72
2021/12/02 08:36:41;;;;;;;7.85;5.30;;;9.00;99.90;;;;;;4982798;28;20195;-72
2021/12/02 08:39:15;;;;;;;7.20;5.45;;;9.00;99.90;;;;;;4980839;28;20380;-72
2021/12/02 08:41:57;;;;;;;8.35;5.10;;;9.10;99.90;;;;;;4981344;28;20227;-72
2021/12/02 08:44:27;;;;;;;8.15;6.05;;;9.10;99.90;;;;;;4979537;28;20725;-72
2021/12/02 08:47:01;;;;;;;6.15;5.05;;;9.20;99.90;;;;;;4983495;28;20199;-72
2021/12/02 08:49:29;;;;;;;7.15;5.25;;;9.30;99.90;;;;;;4979316;28;20172;-72
2021/12/02 08:52:06;;;;;;;6.90;5.45;;;9.40;99.90;;;;;;4976595;28;20642;-72
2021/12/02 08:54:47;;;;;;;8.20;6.25;;;9.60;99.90;;;;;;4987369;28;20199;-72
2021/12/02 08:57:39;;;;;;;11.63;6.57;;;9.80;99.90;;;;;;5001872;28;20219;-72
2021/12/02 09:00:17;;;;;;;11.05;6.07;;;9.90;99.90;;;;;;4979891;28;20731;-73
2021/12/02 09:02:45;;;;;;;7.93;6.53;;;10.00;99.90;;;;;;4985344;28;20552;-72
2021/12/02 09:05:17;;;;;;;12.80;8.68;;;10.00;99.90;;;;;;4980210;28;20300;-71
2021/12/02 09:07:46;;;;;;;7.57;5.88;;;10.10;99.90;;;;;;4990009;28;20266;-72
2021/12/02 09:10:26;;;;;;;7.13;5.47;;;10.30;99.90;;;;;;5000247;28;20187;-72
2021/12/02 09:12:53;;;;;;;9.15;5.53;;;10.50;99.90;;;;;;5000941;28;20327;-72
2021/12/02 09:15:23;;;;;;;8.88;5.55;;;10.80;99.90;;;;;;4997790;28;20203;-72
2021/12/02 09:17:50;;;;;;;8.50;6.13;;;11.10;99.90;;;;;;5003024;28;20213;-72
2021/12/02 09:20:18;;;;;;;6.97;5.32;;;11.50;99.90;;;;;;5008379;28;20171;-72
2021/12/02 09:22:47;;;;;;;6.07;5.00;;;12.00;99.90;;;;;;5006914;28;20206;-72
2021/12/02 09:25:20;;;;;;;7.55;5.40;;;12.50;99.90;;;;;;5006401;28;20235;-72
2021/12/02 09:27:53;;;;;;;7.70;5.60;;;13.40;99.90;;;;;;5008887;28;20199;-71
2021/12/02 09:30:24;;;;;;;7.40;5.80;;;14.10;99.90;;;;;;5009948;28;20432;-72
2021/12/02 09:36:22;;;;;;;7.07;6.37;;;15.40;99.90;;;;;;5010708;28;20447;-72
2021/12/02 09:38:53;;;;;;;8.30;5.30;;;16.00;99.90;;;;;;5005681;28;20499;-72
2021/12/02 09:41:26;;;;;;;7.20;4.83;;;16.30;99.90;;;;;;5010541;28;20515;-72
2021/12/02 09:43:57;;;;;;;5.80;5.20;;;16.50;99.90;;;;;;5011268;28;20526;-71
2021/12/02 09:49:53;;;;;;;5.03;4.53;;;17.00;99.90;;;;;;5110452;23;20503;-73
2021/12/02 09:52:30;;;;;;;6.50;5.33;;;17.30;99.90;;;;;;4965009;28;20446;-73
2021/12/02 09:55:05;;;;;;;6.10;4.87;;;17.40;99.90;;;;;;4970234;28;20482;-73
2021/12/02 09:57:44;;;;;;;7.70;6.77;;;17.20;99.90;;;;;;4962031;28;21065;-73
2021/12/02 10:00:18;;;;;;;7.23;5.07;;;17.10;99.90;;;;;;4962763;28;20466;-73
2021/12/02 10:03:07;;;;;;;7.00;5.23;;;17.00;99.90;;;;;;4972998;28;20541;-73
2021/12/02 10:05:45;;;;;;;11.63;5.30;;;17.00;99.90;;;;;;4961448;28;20502;-73
2021/12/02 10:08:44;;;;;;;8.23;4.70;;;16.80;99.90;;;;;;4968496;28;20450;-73
2021/12/02 10:17:41;;;;;;;5.00;4.50;;;16.20;99.90;;;;;;4996431;28;20518;-73
2021/12/02 10:23:04;;;;;;;7.67;5.77;;;16.10;99.90;;;;;;4965472;28;21351;-73
2021/12/02 10:25:40;;;;;;;6.53;5.50;;;16.10;99.90;;;;;;4957862;28;20500;-72
2021/12/02 10:28:17;;;;;;;6.87;4.33;;;16.00;99.90;;;;;;4955647;28;21049;-73
2021/12/02 10:30:56;;;;;;;7.20;4.73;;;15.90;99.90;;;;;;4972965;28;20481;-73
2021/12/02 10:33:35;;;;;;;6.00;3.87;;;15.80;99.90;;;;;;4955840;28;20449;-73
2021/12/02 10:36:06;;;;;;;7.00;3.93;;;15.70;99.90;;;;;;4955588;28;20454;-73
2021/12/02 10:38:40;;;;;;;3.90;3.33;;;15.50;99.90;;;;;;4976749;28;21051;-73
2021/12/02 10:41:16;;;;;;;4.23;3.27;;;15.40;99.90;;;;;;4950851;29;20444;-73
2021/12/02 10:44:27;;;;;;;7.10;4.50;;;15.30;99.90;;;;;;4952970;28;20452;-73
2021/12/02 10:47:20;;;;;;;6.47;3.83;;;15.30;99.90;;;;;;4934338;29;20463;-73
2021/12/02 10:49:58;;;;;;;4.23;3.73;;;15.30;99.90;;;;;;4948491;29;20440;-73
2021/12/02 10:52:37;;;;;;;7.50;5.87;;;15.30;99.90;;;;;;4965740;28;20553;-73
2021/12/02 10:55:28;;;;;;;6.73;4.30;;;15.30;99.90;;;;;;4954083;28;20434;-73
2021/12/02 10:57:58;;;;;;;6.47;3.87;;;15.30;99.90;;;;;;4970502;28;20525;-73
2021/12/02 11:00:28;;;;;;;6.10;4.83;;;15.40;99.90;;;;;;4964843;28;20437;-73
2021/12/02 11:03:14;;;;;;;4.73;4.23;;;15.40;99.90;;;;;;4971472;28;20557;-73
2021/12/02 11:05:46;;;;;;;5.30;4.50;;;15.40;99.90;;;;;;4955938;28;20453;-73
2021/12/02 11:08:22;;;;;;;5.33;4.13;;;15.40;99.90;;;;;;4963066;28;20454;-73
2021/12/02 11:10:57;;;;;;;7.23;3.93;;;15.50;99.90;;;;;;4944453;28;20486;-73
2021/12/02 11:16:34;;;;;;;4.50;3.47;;;15.50;99.90;;;;;;4960100;28;20485;-73
2021/12/02 11:19:30;;;;;;;4.77;3.10;;;15.60;99.90;;;;;;4937186;29;20546;-73
2021/12/02 11:22:19;;;;;;;6.40;4.40;;;15.50;99.90;;;;;;4953484;29;20451;-73
2021/12/02 11:24:47;;;;;;;3.80;3.30;;;15.40;99.90;;;;;;4937359;29;20423;-73
2021/12/02 11:27:18;;;;;;;6.83;4.70;;;15.40;99.90;;;;;;4934125;29;20426;-73
2021/12/02 11:29:52;;;;;;;6.73;5.33;;;15.40;99.90;;;;;;4932968;29;20869;-73
2021/12/02 11:32:38;;;;;;;5.00;4.00;;;15.30;99.90;;;;;;4939250;28;20474;-73
2021/12/02 11:35:12;;;;;;;4.17;3.37;;;15.30;99.90;;;;;;4934826;28;20505;-73
2021/12/02 11:37:52;;;;;;;5.43;3.93;;;15.10;99.90;;;;;;4937224;29;20604;-73
2021/12/02 11:40:26;;;;;;;4.33;3.40;;;15.10;99.90;;;;;;4931760;29;20439;-72
2021/12/02 11:43:28;;;;;;;4.73;3.10;;;15.10;99.90;;;;;;4949301;28;20437;-73
2021/12/02 11:46:06;;;;;;;4.60;3.40;;;15.20;99.90;;;;;;4935318;28;20450;-73
2021/12/02 11:48:44;;;;;;;4.90;3.17;;;15.20;99.90;;;;;;4934206;28;20458;-73
2021/12/02 11:51:21;;;;;;;3.83;3.27;;;15.30;99.90;;;;;;4937486;29;20497;-73
2021/12/02 11:53:47;;;;;;;3.97;3.67;;;15.40;99.90;;;;;;4932092;29;20477;-73
2021/12/02 11:56:22;;;;;;;3.33;3.03;;;15.40;99.90;;;;;;4953808;28;20467;-73
2021/12/02 11:59:04;;;;;;;3.23;2.60;;;15.30;99.90;;;;;;4917359;28;20471;-73
2021/12/02 12:01:42;;;;;;;6.20;2.63;;;15.20;99.90;;;;;;4936889;29;20763;-73
2021/12/02 12:04:24;;;;;;;5.47;4.17;;;15.10;99.90;;;;;;4939453;28;20437;-73
2021/12/02 12:07:13;;;;;;;4.20;3.10;;;15.10;99.90;;;;;;4946566;29;20422;-72
2021/12/02 12:09:39;;;;;;;4.03;3.50;;;15.00;99.90;;;;;;4948279;28;20494;-73
2021/12/02 12:12:07;;;;;;;5.33;3.87;;;14.90;99.90;;;;;;4932594;28;20427;-73
2021/12/02 12:14:46;;;;;;;5.17;3.23;;;14.90;99.90;;;;;;4944842;29;20490;-73
2021/12/02 12:17:17;;;;;;;3.77;3.47;;;14.80;99.90;;;;;;4953491;28;20466;-73
2021/12/02 12:19:52;;;;;;;7.00;4.87;;;14.80;99.90;;;;;;4951127;28;20525;-73
2021/12/02 12:22:32;;;;;;;4.00;3.60;;;14.70;99.90;;;;;;4953311;28;20885;-73
2021/12/02 12:25:06;;;;;;;6.90;4.13;;;14.50;99.90;;;;;;4945089;28;20457;-73
2021/12/02 12:27:41;;;;;;;7.97;4.27;;;14.50;99.90;;;;;;4952759;28;20765;-73
2021/12/02 12:30:10;;;;;;;8.23;5.73;;;14.40;99.90;;;;;;4942179;28;20425;-73
2021/12/02 12:33:04;;;;;;;8.57;5.40;;;14.30;99.90;;;;;;4940560;29;20489;-73
2021/12/02 12:38:33;;;;;;;7.93;5.33;;;14.10;99.90;;;;;;4961412;28;20533;-73
2021/12/02 12:41:52;;;;;;;8.70;6.33;;;14.00;99.90;;;;;;4951012;28;20437;-72
2021/12/02 12:44:58;;;;;;;7.10;6.10;;;13.90;99.90;;;;;;4937455;28;20869;-73
2021/12/02 12:47:41;;;;;;;9.90;6.37;;;13.80;99.90;;;;;;4967502;28;20421;-73
2021/12/02 12:50:38;;;;;;;8.63;7.00;;;13.60;99.90;;;;;;4953284;28;20493;-73
2021/12/02 12:53:04;;;;;;;19.60;11.60;;;13.50;99.90;;;;;;4965866;28;20573;-72
2021/12/02 12:55:36;;;;;;;26.60;15.60;;;13.50;99.90;;;;;;4967449;28;20533;-72
2021/12/02 12:58:32;;;;;;;34.07;19.43;;;13.40;99.90;;;;;;4969842;28;20565;-72
2021/12/02 13:01:22;;;;;;;45.70;23.07;;;13.30;99.90;;;;;;4966581;28;20976;-74
2021/12/02 13:04:14;;;;;;;45.57;22.03;;;13.30;99.90;;;;;;4954198;28;20445;-73
2021/12/02 13:06:52;;;;;;;26.87;14.53;;;13.30;99.90;;;;;;4954584;28;20481;-73
2021/12/02 13:09:41;;;;;;;31.10;16.13;;;13.30;99.90;;;;;;4952960;28;20994;-73
2021/12/02 13:12:08;;;;;;;18.70;11.10;;;13.20;99.90;;;;;;4953995;28;20401;-73
2021/12/02 13:14:57;;;;;;;41.47;21.80;;;13.20;99.90;;;;;;4967952;28;20453;-73
2021/12/02 13:17:44;;;;;;;20.67;12.27;;;13.10;99.90;;;;;;4967896;28;20830;-73
2021/12/02 13:20:30;;;;;;;30.27;15.50;;;13.10;99.90;;;;;;4952894;28;20529;-72
2021/12/02 13:23:15;;;;;;;41.10;19.80;;;13.10;99.90;;;;;;4948162;28;20614;-73
2021/12/02 13:25:47;;;;;;;34.00;18.97;;;13.10;99.90;;;;;;4971285;28;20475;-73
2021/12/02 13:28:17;;;;;;;26.17;15.33;;;13.10;99.90;;;;;;4947395;29;20466;-73
2021/12/02 13:30:52;;;;;;;29.07;18.73;;;13.10;99.90;;;;;;4946172;28;20456;-73
2021/12/02 13:33:37;;;;;;;36.20;27.73;;;13.10;99.90;;;;;;4951613;28;20815;-73
2021/12/02 13:36:08;;;;;;;20.40;13.47;;;13.10;99.90;;;;;;4945464;28;20496;-73
2021/12/02 13:38:41;;;;;;;14.20;10.30;;;13.10;99.90;;;;;;4965255;28;20813;-73
2021/12/02 13:41:19;;;;;;;16.47;12.60;;;13.20;99.90;;;;;;4951427;28;20803;-73
2021/12/02 13:44:05;;;;;;;13.00;9.30;;;13.20;99.90;;;;;;4950244;28;20461;-73
2021/12/02 13:46:53;;;;;;;17.10;11.53;;;13.10;99.90;;;;;;4966017;28;20837;-72
2021/12/02 13:49:27;;;;;;;13.97;9.10;;;13.10;99.90;;;;;;4967528;28;20462;-73
2021/12/02 13:55:07;;;;;;;11.57;8.70;;;13.10;99.90;;;;;;4974904;28;20614;-73
2021/12/02 13:58:03;;;;;;;11.57;7.90;;;13.10;99.90;;;;;;4961092;28;21018;-73
2021/12/02 14:00:37;;;;;;;16.60;12.27;;;13.10;99.90;;;;;;4943839;28;20436;-73
2021/12/02 14:03:17;;;;;;;16.20;13.10;;;13.00;99.90;;;;;;4971545;28;20458;-72
2021/12/02 14:06:09;;;;;;;15.10;10.20;;;13.00;99.90;;;;;;4953196;28;20421;-72
2021/12/02 14:08:50;;;;;;;13.03;9.50;;;12.90;99.90;;;;;;4952162;28;20469;-73
2021/12/02 14:11:19;;;;;;;10.80;9.60;;;12.90;99.90;;;;;;4955650;28;20429;-73